createdAt,value
2018-08-17T00:01:46.636Z,53.36
2018-08-17T00:04:15.183Z,53.76
2018-08-17T00:06:42.784Z,53.15
2018-08-17T00:09:11.293Z,53.32
2018-08-17T00:11:40.251Z,53.61
2018-08-17T00:14:08.378Z,54.06
2018-08-17T00:16:35.971Z,54.74
2018-08-17T00:19:04.303Z,54.63
2018-08-17T00:21:32.202Z,54.99
2018-08-17T00:24:01.155Z,54.21
2018-08-17T00:26:29.579Z,55.00
2018-08-17T00:29:03.911Z,55.00
2018-08-17T00:31:32.094Z,54.94
2018-08-17T00:34:00.538Z,54.84
2018-08-17T00:36:28.199Z,54.90
2018-08-17T00:38:55.819Z,55.24
2018-08-17T00:41:23.640Z,55.22
2018-08-17T00:43:53.078Z,54.83
2018-08-17T00:46:20.970Z,55.57
2018-08-17T00:48:48.571Z,55.72
2018-08-17T00:51:16.158Z,55.79
2018-08-17T00:53:43.730Z,56.14
2018-08-17T00:56:12.427Z,56.21
2018-08-17T00:58:40.015Z,55.77
2018-08-17T01:01:07.607Z,55.80
2018-08-17T01:03:35.491Z,56.02
2018-08-17T01:06:03.287Z,56.14
2018-08-17T01:08:30.879Z,56.66
2018-08-17T01:10:58.475Z,55.92
2018-08-17T01:13:26.338Z,55.58
2018-08-17T01:15:54.009Z,55.45
2018-08-17T01:18:22.596Z,55.76
2018-08-17T01:20:50.618Z,55.82
2018-08-17T01:23:18.230Z,55.88
2018-08-17T01:25:46.802Z,55.15
2018-08-17T01:28:14.547Z,54.75
2018-08-17T01:30:42.435Z,55.52
2018-08-17T01:33:10.119Z,55.25
2018-08-17T01:35:38.411Z,54.64
2018-08-17T01:38:06.597Z,55.04
2018-08-17T01:40:34.210Z,54.38
2018-08-17T01:43:01.863Z,55.10
2018-08-17T01:45:29.515Z,54.58
2018-08-17T01:47:58.379Z,55.07
2018-08-17T01:50:25.987Z,54.73
2018-08-17T01:52:53.625Z,54.71
2018-08-17T01:55:21.272Z,54.66
2018-08-17T01:57:49.238Z,54.12
2018-08-17T02:00:17.570Z,54.96
2018-08-17T02:02:45.190Z,54.40
2018-08-17T02:05:12.802Z,54.42
2018-08-17T02:07:40.695Z,55.05
2018-08-17T02:10:09.770Z,54.57
2018-08-17T02:12:37.655Z,54.50
2018-08-17T02:15:05.274Z,54.58
2018-08-17T02:17:33.169Z,54.73
2018-08-17T02:20:00.806Z,54.82
2018-08-17T02:22:28.500Z,54.49
2018-08-17T02:24:56.142Z,54.50
2018-08-17T02:27:25.003Z,54.74
2018-08-17T02:29:53.391Z,54.32
2018-08-17T02:32:21.055Z,54.14
2018-08-17T02:34:48.680Z,54.89
2018-08-17T02:37:16.704Z,54.74
2018-08-17T02:39:44.918Z,55.58
2018-08-17T02:42:12.540Z,55.76
2018-08-17T02:44:40.179Z,55.00
2018-08-17T02:47:08.179Z,55.22
2018-08-17T02:49:35.806Z,54.72
2018-08-17T02:52:03.489Z,55.27
2018-08-17T02:54:31.103Z,54.73
2018-08-17T02:56:58.970Z,55.46
2018-08-17T02:59:26.647Z,54.68
2018-08-17T03:01:54.218Z,55.14
2018-08-17T03:04:21.822Z,54.75
2018-08-17T03:06:49.719Z,55.61
2018-08-17T03:09:17.400Z,55.18
2018-08-17T03:11:45.039Z,55.84
2018-08-17T03:14:12.672Z,55.96
2018-08-17T03:16:40.331Z,55.23
2018-08-17T03:19:07.927Z,56.06
2018-08-17T03:21:35.794Z,55.69
2018-08-17T03:24:03.390Z,55.83
2018-08-17T03:26:31.009Z,56.48
2018-08-17T03:28:59.015Z,56.72
2018-08-17T03:31:26.635Z,56.05
2018-08-17T03:33:54.338Z,57.00
2018-08-17T03:36:22.570Z,56.12
2018-08-17T03:38:50.519Z,56.99
2018-08-17T03:41:18.132Z,56.75
2018-08-17T03:43:46.340Z,56.79
2018-08-17T03:46:13.975Z,56.78
2018-08-17T03:48:41.874Z,56.61
2018-08-17T03:51:09.503Z,56.49
2018-08-17T03:53:37.126Z,57.30
2018-08-17T03:56:05.061Z,56.94
2018-08-17T03:58:32.712Z,57.19
2018-08-17T04:01:00.392Z,57.20
2018-08-17T04:03:27.992Z,57.47
2018-08-17T04:05:55.897Z,57.41
2018-08-17T04:08:23.496Z,57.93
2018-08-17T04:10:51.124Z,57.86
2018-08-17T04:13:19.267Z,58.01
2018-08-17T04:15:47.142Z,58.19
2018-08-17T04:18:14.753Z,57.29
2018-08-17T04:20:42.396Z,57.40
2018-08-17T04:23:09.992Z,57.70
2018-08-17T04:25:37.870Z,57.86
2018-08-17T04:28:05.511Z,57.69
2018-08-17T04:30:33.213Z,58.34
2018-08-17T04:33:01.218Z,57.90
2018-08-17T04:35:30.114Z,57.59
2018-08-17T04:37:57.731Z,58.38
2018-08-17T04:40:26.031Z,58.15
2018-08-17T04:42:53.678Z,57.68
2018-08-17T04:45:21.573Z,58.48
2018-08-17T04:47:49.985Z,58.41
2018-08-17T04:50:17.599Z,58.73
2018-08-17T04:52:46.087Z,58.28
2018-08-17T04:55:14.067Z,58.30
2018-08-17T04:57:41.663Z,58.02
2018-08-17T05:00:10.078Z,58.22
2018-08-17T05:02:38.210Z,58.05
2018-08-17T05:05:05.839Z,57.90
2018-08-17T05:07:33.507Z,58.41
2018-08-17T05:10:01.124Z,58.07
2018-08-17T05:12:29.338Z,57.80
2018-08-17T05:14:57.222Z,56.65
2018-08-17T05:17:24.847Z,56.98
2018-08-17T05:19:52.473Z,57.19
2018-08-17T05:22:20.350Z,57.28
2018-08-17T05:24:47.935Z,57.32
2018-08-17T05:27:16.538Z,57.28
2018-08-17T05:29:45.256Z,56.51
2018-08-17T05:32:12.862Z,56.58
2018-08-17T05:34:40.476Z,56.22
2018-08-17T05:37:08.352Z,56.82
2018-08-17T05:39:37.560Z,56.16
2018-08-17T05:42:05.188Z,56.73
2018-08-17T05:44:33.092Z,56.64
2018-08-17T05:47:00.711Z,56.26
2018-08-17T05:49:28.311Z,55.82
2018-08-17T05:51:56.202Z,55.60
2018-08-17T05:54:23.800Z,56.32
2018-08-17T05:56:51.423Z,56.13
2018-08-17T05:59:19.439Z,55.41
2018-08-17T06:01:47.322Z,55.56
2018-08-17T06:04:14.988Z,55.92
2018-08-17T06:06:42.902Z,56.46
2018-08-17T06:09:10.923Z,56.39
2018-08-17T06:11:38.915Z,56.82
2018-08-17T06:14:06.970Z,56.37
2018-08-17T06:16:34.600Z,56.80
2018-08-17T06:19:02.183Z,56.28
2018-08-17T06:21:30.071Z,57.11
2018-08-17T06:23:57.694Z,56.42
2018-08-17T06:26:25.327Z,56.65
2018-08-17T06:28:53.204Z,56.66
2018-08-17T06:31:20.870Z,56.70
2018-08-17T06:33:49.539Z,56.53
2018-08-17T06:36:17.469Z,56.09
2018-08-17T06:38:45.118Z,56.26
2018-08-17T06:41:12.751Z,56.33
2018-08-17T06:43:45.557Z,56.09
2018-08-17T06:46:13.387Z,56.69
2018-08-17T06:48:41.008Z,56.52
2018-08-17T06:51:08.889Z,56.99
2018-08-17T06:53:36.542Z,56.53
2018-08-17T06:56:04.115Z,56.82
2018-08-17T06:58:31.990Z,56.92
2018-08-17T07:00:59.603Z,57.37
2018-08-17T07:03:27.190Z,57.24
2018-08-17T07:05:55.105Z,57.39
2018-08-17T07:08:23.514Z,58.18
2018-08-17T07:10:53.078Z,57.36
2018-08-17T07:13:21.049Z,57.93
2018-08-17T07:15:49.299Z,58.24
2018-08-17T07:18:16.925Z,57.59
2018-08-17T07:20:44.913Z,57.51
2018-08-17T07:23:12.538Z,57.76
2018-08-17T07:25:40.219Z,58.21
2018-08-17T07:28:09.385Z,59.07
2018-08-17T07:30:37.062Z,59.69
2018-08-17T07:33:06.609Z,59.64
2018-08-17T07:35:34.718Z,60.01
2018-08-17T07:38:04.034Z,60.74
2018-08-17T07:40:32.885Z,61.89
2018-08-17T07:43:03.853Z,61.84
2018-08-17T07:45:31.474Z,61.49
2018-08-17T07:47:59.938Z,62.29
2018-08-17T07:50:29.367Z,62.10
2018-08-17T07:52:56.969Z,61.79
2018-08-17T07:55:24.605Z,62.25
2018-08-17T07:57:52.495Z,61.50
2018-08-17T08:00:20.143Z,61.75
2018-08-17T08:02:48.478Z,61.73
2018-08-17T08:05:16.655Z,61.41
2018-08-17T08:07:45.066Z,62.06
2018-08-17T08:10:12.885Z,62.52
2018-08-17T08:12:47.370Z,62.49
2018-08-17T08:15:14.990Z,62.27
2018-08-17T08:17:42.658Z,62.34
2018-08-17T08:20:11.269Z,62.85
2018-08-17T08:22:38.980Z,62.91
2018-08-17T08:25:07.255Z,63.00
2018-08-17T08:27:37.670Z,62.45
2018-08-17T08:30:05.927Z,62.76
2018-08-17T08:32:34.150Z,63.25
2018-08-17T08:35:02.264Z,63.18
2018-08-17T08:37:29.896Z,62.46
2018-08-17T08:39:57.620Z,62.55
2018-08-17T08:42:25.507Z,62.55
2018-08-17T08:44:53.127Z,62.11
2018-08-17T08:47:20.749Z,61.65
2018-08-17T08:49:48.723Z,61.44
2018-08-17T08:52:16.312Z,60.89
2018-08-17T08:54:43.922Z,61.29
2018-08-17T08:57:11.814Z,61.21
2018-08-17T08:59:39.506Z,60.52
2018-08-17T09:02:07.659Z,60.92
2018-08-17T09:04:35.564Z,60.93
2018-08-17T09:07:03.234Z,60.49
2018-08-17T09:09:32.477Z,60.93
2018-08-17T09:12:00.980Z,60.91
2018-08-17T09:14:28.595Z,60.67
2018-08-17T09:16:56.509Z,60.67
2018-08-17T09:19:25.391Z,60.40
2018-08-17T09:21:54.136Z,60.29
2018-08-17T09:24:22.065Z,59.87
2018-08-17T09:26:53.248Z,59.65
2018-08-17T09:29:22.248Z,58.67
2018-08-17T09:31:53.860Z,58.51
2018-08-17T09:34:21.462Z,58.40
2018-08-17T09:36:49.264Z,58.90
2018-08-17T09:39:18.876Z,58.12
2018-08-17T09:41:46.775Z,57.04
2018-08-17T09:44:14.512Z,56.86
2018-08-17T09:46:42.418Z,55.34
2018-08-17T09:49:10.049Z,54.86
2018-08-17T09:51:38.374Z,54.37
2018-08-17T09:54:07.327Z,53.70
2018-08-17T09:56:35.758Z,53.72
2018-08-17T09:59:03.406Z,53.33
2018-08-17T10:01:36.247Z,53.20
2018-08-17T10:04:08.990Z,52.78
2018-08-17T10:06:41.856Z,52.70
2018-08-17T10:09:16.257Z,51.36
2018-08-17T10:11:43.930Z,51.45
2018-08-17T10:14:11.847Z,51.39
2018-08-17T10:16:39.450Z,51.08
2018-08-17T10:19:07.041Z,50.40
2018-08-17T10:21:40.315Z,49.83
2018-08-17T10:24:07.647Z,48.46
2018-08-17T10:26:35.250Z,48.00
2018-08-17T10:29:03.834Z,48.45
2018-08-17T10:31:34.703Z,48.67
2018-08-17T10:34:02.680Z,49.38
2018-08-17T10:36:31.584Z,50.44
2018-08-17T10:39:00.901Z,51.72
2018-08-17T10:41:28.511Z,51.61
2018-08-17T10:43:57.534Z,52.15
2018-08-17T10:46:25.952Z,52.49
2018-08-17T10:48:53.742Z,53.89
2018-08-17T10:51:23.652Z,54.97
2018-08-17T10:53:52.274Z,54.80
2018-08-17T10:56:19.880Z,55.41
2018-08-17T10:58:47.770Z,55.75
2018-08-17T11:01:16.092Z,56.73
2018-08-17T11:03:45.398Z,56.74
2018-08-17T11:06:13.290Z,56.69
2018-08-17T11:08:40.901Z,57.10
2018-08-17T11:11:08.700Z,56.73
2018-08-17T11:13:36.656Z,56.20
2018-08-17T11:16:04.816Z,57.01
2018-08-17T11:18:36.071Z,56.24
2018-08-17T11:21:04.936Z,56.41
2018-08-17T11:23:32.569Z,56.56
2018-08-17T11:26:00.847Z,57.53
2018-08-17T11:28:30.900Z,57.70
2018-08-17T11:30:58.571Z,57.93
2018-08-17T11:33:28.782Z,58.24
2018-08-17T11:35:57.184Z,58.89
2018-08-17T11:38:28.501Z,59.21
2018-08-17T11:40:58.905Z,58.84
2018-08-17T11:43:27.644Z,59.07
2018-08-17T11:45:55.681Z,58.83
2018-08-17T11:48:28.360Z,59.05
2018-08-17T11:50:56.540Z,58.44
2018-08-17T11:53:24.264Z,59.04
2018-08-17T11:55:52.739Z,58.15
2018-08-17T11:58:20.840Z,58.86
2018-08-17T12:00:52.476Z,58.59
2018-08-17T12:03:20.108Z,58.16
2018-08-17T12:05:48.043Z,58.58
2018-08-17T12:08:16.566Z,58.63
2018-08-17T12:10:44.616Z,59.03
2018-08-17T12:13:18.693Z,59.14
2018-08-17T12:15:51.263Z,58.73
2018-08-17T12:18:21.637Z,58.81
2018-08-17T12:20:50.223Z,58.71
2018-08-17T12:23:17.907Z,59.44
2018-08-17T12:25:52.066Z,59.35
2018-08-17T12:28:19.768Z,58.92
2018-08-17T12:30:47.740Z,58.65
2018-08-17T12:33:24.376Z,58.10
2018-08-17T12:35:52.336Z,58.62
2018-08-17T12:38:20.038Z,57.67
2018-08-17T12:40:49.710Z,57.96
2018-08-17T12:43:19.031Z,57.14
2018-08-17T12:45:49.332Z,56.49
2018-08-17T12:48:17.939Z,56.07
2018-08-17T12:50:45.970Z,56.20
2018-08-17T12:53:14.550Z,56.32
2018-08-17T12:55:44.359Z,55.88
2018-08-17T12:58:15.904Z,54.84
2018-08-17T13:00:43.579Z,54.23
2018-08-17T13:03:11.769Z,54.23
2018-08-17T13:05:39.426Z,53.97
2018-08-17T13:08:07.882Z,54.29
2018-08-17T13:10:35.875Z,53.87
2018-08-17T13:13:09.300Z,55.02
2018-08-17T13:15:38.103Z,54.66
2018-08-17T13:18:11.622Z,55.29
2018-08-17T13:20:44.538Z,54.89
2018-08-17T13:23:12.264Z,53.92
2018-08-17T13:25:40.532Z,53.74
2018-08-17T13:28:08.216Z,52.83
2018-08-17T13:30:36.098Z,53.78
2018-08-17T13:33:03.732Z,53.48
2018-08-17T13:35:31.397Z,54.04
2018-08-17T13:37:59.284Z,53.31
2018-08-17T13:40:27.830Z,52.25
2018-08-17T13:42:55.511Z,52.05
2018-08-17T13:45:23.491Z,51.34
2018-08-17T13:47:51.148Z,51.29
2018-08-17T13:50:19.991Z,50.47
2018-08-17T13:52:48.611Z,51.90
2018-08-17T13:55:16.294Z,51.35
2018-08-17T13:57:43.963Z,52.05
2018-08-17T14:00:12.259Z,52.00
2018-08-17T14:02:41.735Z,51.36
2018-08-17T14:05:09.700Z,51.33
2018-08-17T14:07:37.767Z,51.58
2018-08-17T14:10:05.443Z,51.54
2018-08-17T14:12:33.308Z,51.19
2018-08-17T14:15:01.279Z,52.17
2018-08-17T14:17:29.625Z,52.51
2018-08-17T14:19:58.840Z,52.73
2018-08-17T14:22:26.771Z,52.84
2018-08-17T14:24:54.397Z,53.10
2018-08-17T14:27:22.834Z,53.31
2018-08-17T14:29:50.752Z,53.16
2018-08-17T14:32:19.615Z,54.62
2018-08-17T14:34:48.240Z,54.37
2018-08-17T14:37:16.101Z,54.08
2018-08-17T14:39:44.477Z,54.15
2018-08-17T14:42:12.515Z,54.28
2018-08-17T14:44:40.381Z,54.98
2018-08-17T14:47:08.020Z,55.11
2018-08-17T14:49:35.626Z,55.45
2018-08-17T14:52:05.374Z,55.97
2018-08-17T14:54:36.547Z,56.59
2018-08-17T14:57:07.819Z,56.53
2018-08-17T14:59:35.716Z,56.50
2018-08-17T15:02:04.139Z,55.84
2018-08-17T15:04:31.826Z,56.34
2018-08-17T15:06:59.941Z,56.73
2018-08-17T15:09:28.082Z,56.74
2018-08-17T15:11:55.736Z,55.92
2018-08-17T15:14:24.451Z,56.38
2018-08-17T15:16:52.261Z,56.29
2018-08-17T15:19:19.871Z,56.68
2018-08-17T15:21:47.828Z,56.55
2018-08-17T15:24:16.396Z,56.00
2018-08-17T15:26:44.108Z,56.04
2018-08-17T15:29:12.058Z,55.98
2018-08-17T15:31:39.717Z,56.12
2018-08-17T15:34:07.330Z,55.51
2018-08-17T15:36:36.428Z,55.70
2018-08-17T15:39:04.652Z,55.82
2018-08-17T15:41:37.260Z,55.80
2018-08-17T15:44:05.760Z,55.75
2018-08-17T15:46:33.668Z,55.58
2018-08-17T15:49:02.315Z,55.25
2018-08-17T15:51:31.647Z,55.22
2018-08-17T15:53:59.251Z,54.90
2018-08-17T15:56:27.908Z,54.20
2018-08-17T15:58:56.469Z,53.19
2018-08-17T16:01:24.154Z,52.82
2018-08-17T16:03:53.431Z,52.66
2018-08-17T16:06:21.671Z,52.92
2018-08-17T16:08:49.487Z,53.09
2018-08-17T16:11:17.406Z,51.64
2018-08-17T16:13:46.732Z,48.28
2018-08-17T16:16:15.338Z,46.98
2018-08-17T16:18:47.337Z,44.48
2018-08-17T16:21:14.992Z,44.07
2018-08-17T16:23:42.640Z,43.39
2018-08-17T16:26:11.292Z,43.23
2018-08-17T16:28:38.958Z,44.81
2018-08-17T16:31:07.294Z,46.62
2018-08-17T16:33:39.431Z,47.46
2018-08-17T16:36:07.244Z,49.22
2018-08-17T16:38:35.475Z,50.24
2018-08-17T16:41:03.485Z,52.02
2018-08-17T16:43:32.179Z,51.97
2018-08-17T16:45:59.837Z,52.91
2018-08-17T16:48:27.850Z,53.38
2018-08-17T16:50:56.666Z,54.02
2018-08-17T16:53:29.304Z,53.72
2018-08-17T16:55:57.300Z,54.43
2018-08-17T16:58:26.605Z,54.40
2018-08-17T17:00:54.385Z,54.80
2018-08-17T17:03:23.061Z,54.65
2018-08-17T17:05:50.696Z,54.54
2018-08-17T17:08:21.493Z,54.81
2018-08-17T17:10:49.401Z,55.23
2018-08-17T17:13:19.384Z,55.86
2018-08-17T17:15:47.995Z,55.17
2018-08-17T17:18:16.037Z,55.69
2018-08-17T17:20:43.753Z,55.81
2018-08-17T17:23:13.533Z,55.73
2018-08-17T17:25:41.731Z,55.75
2018-08-17T17:28:10.269Z,56.41
2018-08-17T17:30:42.968Z,56.22
2018-08-17T17:33:11.410Z,56.80
2018-08-17T17:35:40.693Z,56.47
2018-08-17T17:38:09.791Z,56.97
2018-08-17T17:40:38.753Z,56.42
2018-08-17T17:43:07.715Z,56.93
2018-08-17T17:45:35.739Z,56.85
2018-08-17T17:48:04.086Z,57.20
2018-08-17T17:50:32.003Z,56.83
2018-08-17T17:53:00.534Z,57.11
2018-08-17T17:55:28.852Z,57.54
2018-08-17T17:57:58.500Z,56.96
2018-08-17T18:00:28.299Z,57.49
2018-08-17T18:02:56.517Z,57.15
2018-08-17T18:05:24.184Z,57.87
2018-08-17T18:07:53.756Z,57.41
2018-08-17T18:10:22.533Z,57.48
2018-08-17T18:12:51.211Z,58.03
2018-08-17T18:15:19.927Z,57.89
2018-08-17T18:17:49.286Z,57.54
2018-08-17T18:20:17.782Z,57.59
2018-08-17T18:22:45.571Z,57.63
2018-08-17T18:25:18.348Z,58.16
2018-08-17T18:27:46.742Z,57.84
2018-08-17T18:30:16.045Z,58.12
2018-08-17T18:32:43.998Z,58.28
2018-08-17T18:35:13.049Z,58.77
2018-08-17T18:37:41.418Z,58.64
2018-08-17T18:40:11.375Z,58.99
2018-08-17T18:42:39.926Z,59.22
2018-08-17T18:45:07.852Z,59.72
2018-08-17T18:47:35.825Z,59.89
2018-08-17T18:50:04.016Z,60.07
2018-08-17T18:52:31.665Z,60.05
2018-08-17T18:54:59.657Z,60.74
2018-08-17T18:57:27.365Z,60.55
2018-08-17T18:59:55.807Z,60.27
2018-08-17T19:02:23.707Z,61.11
2018-08-17T19:04:51.535Z,60.55
2018-08-17T19:07:19.138Z,61.50
2018-08-17T19:09:48.355Z,61.53
2018-08-17T19:12:18.451Z,61.31
2018-08-17T19:14:50.336Z,61.60
2018-08-17T19:17:23.299Z,61.06
2018-08-17T19:19:53.677Z,61.27
2018-08-17T19:22:21.959Z,61.82
2018-08-17T19:24:50.488Z,62.24
2018-08-17T19:27:24.211Z,61.49
2018-08-17T19:29:54.469Z,61.58
2018-08-17T19:32:22.671Z,62.42
2018-08-17T19:34:50.307Z,61.65
2018-08-17T19:37:25.081Z,62.49
2018-08-17T19:39:53.850Z,62.29
2018-08-17T19:42:21.518Z,62.08
2018-08-17T19:44:49.161Z,62.42
2018-08-17T19:47:17.642Z,62.53
2018-08-17T19:49:46.529Z,62.51
2018-08-17T19:52:14.720Z,62.52
2018-08-17T19:54:43.329Z,62.18
2018-08-17T19:57:11.839Z,62.60
2018-08-17T19:59:41.439Z,62.57
2018-08-17T20:02:10.362Z,63.55
2018-08-17T20:04:38.058Z,63.54
2018-08-17T20:07:05.720Z,63.05
2018-08-17T20:09:36.196Z,63.49
2018-08-17T20:12:03.827Z,63.52
2018-08-17T20:14:31.616Z,63.65
2018-08-17T20:16:59.552Z,64.24
2018-08-17T20:19:32.207Z,64.01
2018-08-17T20:22:03.582Z,64.02
2018-08-17T20:24:32.442Z,64.70
2018-08-17T20:27:00.264Z,65.16
2018-08-17T20:29:29.118Z,65.14
2018-08-17T20:31:57.717Z,64.93
2018-08-17T20:34:25.455Z,65.29
2018-08-17T20:36:53.142Z,65.41
2018-08-17T20:39:21.071Z,65.23
2018-08-17T20:41:49.598Z,65.25
2018-08-17T20:44:17.250Z,65.20
2018-08-17T20:46:46.382Z,65.44
2018-08-17T20:49:14.022Z,65.29
2018-08-17T20:51:46.324Z,65.46
2018-08-17T20:54:14.259Z,65.33
2018-08-17T20:56:41.899Z,64.97
2018-08-17T20:59:09.497Z,65.82
2018-08-17T21:01:40.500Z,65.63
2018-08-17T21:04:09.037Z,65.65
2018-08-17T21:06:37.439Z,65.59
2018-08-17T21:09:09.093Z,65.70
2018-08-17T21:11:37.639Z,65.56
2018-08-17T21:14:05.590Z,66.30
2018-08-17T21:16:33.753Z,65.84
2018-08-17T21:19:01.670Z,65.99
2018-08-17T21:21:29.596Z,66.04
2018-08-17T21:23:58.512Z,66.42
2018-08-17T21:26:26.689Z,66.32
2018-08-17T21:28:54.370Z,66.15
2018-08-17T21:31:22.861Z,66.68
2018-08-17T21:33:50.511Z,66.98
2018-08-17T21:36:18.313Z,66.61
2018-08-17T21:38:46.346Z,67.06
2018-08-17T21:41:13.935Z,66.34
2018-08-17T21:43:42.354Z,66.80
2018-08-17T21:46:12.241Z,66.50
2018-08-17T21:48:39.844Z,66.58
2018-08-17T21:51:08.326Z,67.13
2018-08-17T21:53:39.232Z,66.70
2018-08-17T21:56:07.768Z,66.59
2018-08-17T21:58:37.365Z,67.32
2018-08-17T22:01:05.451Z,67.41
2018-08-17T22:03:35.247Z,67.47
2018-08-17T22:06:02.864Z,67.39
2018-08-17T22:08:30.805Z,67.22
2018-08-17T22:11:01.374Z,68.05
2018-08-17T22:13:30.041Z,67.67
2018-08-17T22:15:57.880Z,68.29
2018-08-17T22:18:25.537Z,67.90
2018-08-17T22:20:53.383Z,68.08
2018-08-17T22:23:21.960Z,67.67
2018-08-17T22:25:49.572Z,68.20
2018-08-17T22:28:17.660Z,67.45
2018-08-17T22:30:45.860Z,68.15
2018-08-17T22:33:14.276Z,67.73
2018-08-17T22:35:43.347Z,67.61
2018-08-17T22:38:11.613Z,67.25
2018-08-17T22:40:40.232Z,68.56
2018-08-17T22:43:08.709Z,67.69
2018-08-17T22:45:36.305Z,67.32
2018-08-17T22:48:03.932Z,67.53
2018-08-17T22:50:31.828Z,67.34
2018-08-17T22:53:00.243Z,67.23
2018-08-17T22:55:27.850Z,67.11
2018-08-17T22:57:56.108Z,67.29
2018-08-17T23:00:24.289Z,67.08
2018-08-17T23:02:53.089Z,67.28
2018-08-17T23:05:23.226Z,66.63
2018-08-17T23:07:50.864Z,66.40
2018-08-17T23:10:21.292Z,66.61
2018-08-17T23:12:50.359Z,66.37
2018-08-17T23:15:19.553Z,66.50
2018-08-17T23:18:03.310Z,66.38
2018-08-17T23:20:37.459Z,66.17
2018-08-17T23:23:06.064Z,66.46
2018-08-17T23:25:35.482Z,66.19
2018-08-17T23:28:04.607Z,66.44
2018-08-17T23:30:32.334Z,65.70
2018-08-17T23:33:00.029Z,66.04
2018-08-17T23:35:27.931Z,66.57
2018-08-17T23:37:55.527Z,66.88
2018-08-17T23:40:23.143Z,66.67
2018-08-17T23:42:51.462Z,66.32
2018-08-17T23:45:19.797Z,66.47
2018-08-17T23:47:47.440Z,67.16
2018-08-17T23:50:15.968Z,67.65
2018-08-17T23:52:43.857Z,67.79
2018-08-17T23:55:11.831Z,67.24
2018-08-17T23:57:39.440Z,67.42
